Time;durP1;ratioP1;P1;durP2;ratioP2;P2;SDS_P1;SDS_P2;PMS_P1;PMS_P2;Temp;Humidity;BMP_temperature;BMP_pressure;BME280_temperature;BME280_humidity;BME280_pressure;Samples;Min_cycle;Max_cycle;Signal;HPM_P1;HPM_P2
2022/05/09 00:00:05;;;;;;;14.50;4.97;;;6.30;75.60;;;;;;5071325;28;20059;-65
2022/05/09 00:02:31;;;;;;;15.52;4.18;;;6.20;76.00;;;;;;5036597;28;20047;-64
2022/05/09 00:04:57;;;;;;;21.38;4.75;;;6.20;75.90;;;;;;5045496;28;20122;-64
2022/05/09 00:07:23;;;;;;;20.43;4.40;;;6.20;75.90;;;;;;5062387;28;20044;-65
2022/05/09 00:09:49;;;;;;;15.23;4.70;;;6.20;75.80;;;;;;5034012;28;20040;-64
2022/05/09 00:12:15;;;;;;;14.67;4.13;;;6.20;76.00;;;;;;5053105;28;20048;-64
2022/05/09 00:14:41;;;;;;;18.90;5.05;;;6.20;76.20;;;;;;5022955;28;20102;-64
2022/05/09 00:17:06;;;;;;;19.13;4.82;;;6.10;76.30;;;;;;5053749;28;20052;-64
2022/05/09 00:19:32;;;;;;;13.57;5.37;;;6.00;76.30;;;;;;5042395;28;20092;-64
2022/05/09 00:21:58;;;;;;;16.57;4.70;;;6.00;76.30;;;;;;5052535;28;20052;-64
2022/05/09 00:24:24;;;;;;;14.80;5.23;;;5.90;76.50;;;;;;5053330;28;20722;-64
2022/05/09 00:26:51;;;;;;;15.23;5.63;;;5.90;76.40;;;;;;5082059;28;20033;-64
2022/05/09 00:29:20;;;;;;;16.70;5.30;;;5.90;76.50;;;;;;5082082;28;20075;-64
2022/05/09 00:31:47;;;;;;;22.10;5.57;;;5.90;76.70;;;;;;5071443;28;20123;-64
2022/05/09 00:34:19;;;;;;;20.67;5.80;;;5.90;76.80;;;;;;5071367;28;20150;-64
2022/05/09 00:36:46;;;;;;;15.98;5.78;;;5.80;76.90;;;;;;5039159;28;20166;-64
2022/05/09 00:39:12;;;;;;;14.13;5.40;;;5.80;77.20;;;;;;5036415;28;20371;-64
2022/05/09 00:41:41;;;;;;;20.73;5.40;;;5.80;77.20;;;;;;5093000;28;20044;-65
2022/05/09 00:44:19;;;;;;;18.92;6.15;;;5.80;77.30;;;;;;5054548;28;20710;-65
2022/05/09 00:46:48;;;;;;;22.10;6.28;;;5.80;77.30;;;;;;5049034;28;20097;-65
2022/05/09 00:49:29;;;;;;;19.33;5.72;;;5.80;77.30;;;;;;5031626;28;20753;-65
2022/05/09 00:52:18;;;;;;;17.55;5.35;;;5.80;77.40;;;;;;5074223;28;20044;-65
2022/05/09 00:54:50;;;;;;;15.95;5.25;;;5.70;77.50;;;;;;5062143;28;20040;-65
2022/05/09 00:57:30;;;;;;;20.00;5.10;;;5.70;77.50;;;;;;5072671;28;20037;-65
2022/05/09 01:00:02;;;;;;;16.42;5.63;;;5.70;77.60;;;;;;5039456;28;20041;-65
2022/05/09 01:02:29;;;;;;;17.25;4.70;;;5.70;77.70;;;;;;5061839;28;20523;-65
2022/05/09 01:04:57;;;;;;;16.90;4.70;;;5.70;77.50;;;;;;5094324;28;20063;-65
2022/05/09 01:07:24;;;;;;;18.67;4.57;;;5.70;77.60;;;;;;5092066;28;20388;-65
2022/05/09 01:09:50;;;;;;;21.13;4.82;;;5.70;77.70;;;;;;5065731;28;20059;-65
2022/05/09 01:12:22;;;;;;;22.03;5.40;;;5.70;78.00;;;;;;5038796;28;20040;-65
2022/05/09 01:14:49;;;;;;;17.15;4.70;;;5.70;78.00;;;;;;5066413;28;20561;-65
2022/05/09 01:17:15;;;;;;;14.13;4.53;;;5.70;78.20;;;;;;5090336;28;20040;-65
2022/05/09 01:19:47;;;;;;;22.80;4.55;;;5.70;78.10;;;;;;5050821;28;20045;-65
2022/05/09 01:22:21;;;;;;;16.58;4.80;;;5.70;78.20;;;;;;5061885;28;20490;-65
2022/05/09 01:24:47;;;;;;;14.88;4.10;;;5.70;78.20;;;;;;5060398;28;20071;-65
2022/05/09 01:27:13;;;;;;;19.23;4.60;;;5.70;78.40;;;;;;5088124;28;20079;-65
2022/05/09 01:29:47;;;;;;;20.83;4.25;;;5.70;78.40;;;;;;5072078;28;20041;-65
2022/05/09 01:32:17;;;;;;;17.20;4.57;;;5.70;78.50;;;;;;5044960;28;20139;-65
2022/05/09 01:34:48;;;;;;;16.40;4.72;;;5.70;78.30;;;;;;5060212;28;20048;-65
2022/05/09 01:37:15;;;;;;;18.98;5.15;;;5.70;78.40;;;;;;5067501;28;20573;-65
2022/05/09 01:39:41;;;;;;;16.13;5.05;;;5.70;78.50;;;;;;5050497;28;20086;-64
2022/05/09 01:42:09;;;;;;;20.33;4.53;;;5.80;78.70;;;;;;5036433;28;20133;-64
2022/05/09 01:44:37;;;;;;;17.80;4.55;;;5.70;78.40;;;;;;5091528;28;20036;-64
2022/05/09 01:49:48;;;;;;;23.23;5.03;;;5.70;78.50;;;;;;5059264;28;20056;-65
2022/05/09 01:52:16;;;;;;;17.13;4.70;;;5.70;78.50;;;;;;5063078;28;20412;-65
2022/05/09 01:54:43;;;;;;;16.52;4.57;;;5.70;78.60;;;;;;5084978;28;20032;-65
2022/05/09 01:57:10;;;;;;;13.38;4.05;;;5.70;78.70;;;;;;5050873;28;20043;-65
2022/05/09 01:59:37;;;;;;;19.98;4.75;;;5.70;78.60;;;;;;5064686;28;20044;-65
2022/05/09 02:02:09;;;;;;;17.52;4.57;;;5.70;78.60;;;;;;5063618;28;20068;-65
2022/05/09 02:04:38;;;;;;;12.85;4.55;;;5.70;78.70;;;;;;5059634;28;20040;-65
2022/05/09 02:07:05;;;;;;;18.15;4.63;;;5.70;78.70;;;;;;5094824;28;20618;-65
2022/05/09 02:09:31;;;;;;;17.27;4.65;;;5.70;78.80;;;;;;5086880;28;20044;-65
2022/05/09 02:11:56;;;;;;;22.53;5.10;;;5.70;78.90;;;;;;5038387;28;20074;-65
2022/05/09 02:14:22;;;;;;;15.10;4.80;;;5.70;78.90;;;;;;5054827;28;20051;-65
2022/05/09 02:16:48;;;;;;;15.00;4.30;;;5.70;78.90;;;;;;5029173;28;20075;-65
2022/05/09 02:19:13;;;;;;;13.73;5.00;;;5.60;79.00;;;;;;5047065;28;20047;-65
2022/05/09 02:21:39;;;;;;;17.00;5.40;;;5.60;79.20;;;;;;5093483;28;20045;-65
2022/05/09 02:24:05;;;;;;;16.30;5.00;;;5.60;79.10;;;;;;5032613;28;20037;-65
2022/05/09 02:26:31;;;;;;;21.92;5.22;;;5.60;79.40;;;;;;5080566;28;20050;-65
2022/05/09 02:28:57;;;;;;;13.93;5.18;;;5.60;79.20;;;;;;5041746;28;20047;-65
2022/05/09 02:31:23;;;;;;;18.30;5.25;;;5.60;79.40;;;;;;5022765;28;20036;-65
2022/05/09 02:33:50;;;;;;;19.35;5.45;;;5.60;79.20;;;;;;5047918;28;20408;-65
2022/05/09 02:36:16;;;;;;;15.43;5.30;;;5.60;79.40;;;;;;5055813;28;20040;-65
2022/05/09 02:38:41;;;;;;;15.37;5.00;;;5.60;79.40;;;;;;5027902;28;20045;-65
2022/05/09 02:41:07;;;;;;;17.93;4.70;;;5.60;79.40;;;;;;5062895;28;20040;-65
2022/05/09 02:43:35;;;;;;;19.60;5.13;;;5.50;79.50;;;;;;5044732;28;20043;-65
2022/05/09 02:46:04;;;;;;;25.45;4.40;;;5.50;79.70;;;;;;5074167;28;20051;-65
2022/05/09 02:48:37;;;;;;;19.40;4.60;;;5.50;79.50;;;;;;5057536;28;20577;-65
2022/05/09 02:51:08;;;;;;;15.25;5.13;;;5.50;79.70;;;;;;5060469;28;20036;-65
2022/05/09 02:53:35;;;;;;;20.40;4.50;;;5.50;79.80;;;;;;5092859;28;20400;-65
2022/05/09 02:56:01;;;;;;;17.75;4.90;;;5.40;79.80;;;;;;5044985;28;20047;-65
2022/05/09 02:58:27;;;;;;;20.65;5.35;;;5.40;79.70;;;;;;5035201;28;20043;-65
2022/05/09 03:00:53;;;;;;;28.03;7.17;;;5.30;79.80;;;;;;5057426;28;20516;-65
2022/05/09 03:06:03;;;;;;;20.85;5.95;;;5.30;80.20;;;;;;5060895;28;20052;-65
2022/05/09 03:08:32;;;;;;;17.23;5.17;;;5.30;80.60;;;;;;5045059;28;20038;-65
2022/05/09 03:10:58;;;;;;;17.55;4.97;;;5.40;81.00;;;;;;5026287;28;20278;-65
2022/05/09 03:13:24;;;;;;;21.97;6.40;;;5.40;80.80;;;;;;5058519;28;20078;-65
2022/05/09 03:15:51;;;;;;;21.92;5.97;;;5.40;80.60;;;;;;5028168;28;20094;-65
2022/05/09 03:18:21;;;;;;;19.25;5.53;;;5.50;80.50;;;;;;5027589;28;20044;-65
2022/05/09 03:20:47;;;;;;;15.88;5.30;;;5.50;80.40;;;;;;5089681;28;20052;-65
2022/05/09 03:23:13;;;;;;;24.77;7.53;;;5.40;80.90;;;;;;5051070;28;20492;-65
2022/05/09 03:25:40;;;;;;;16.58;5.35;;;5.40;80.70;;;;;;5083851;28;20097;-65
2022/05/09 03:28:10;;;;;;;14.05;5.90;;;5.40;81.00;;;;;;5083107;28;20040;-65
2022/05/09 03:30:37;;;;;;;20.40;5.72;;;5.40;81.20;;;;;;5074759;28;20047;-65
2022/05/09 03:33:04;;;;;;;17.92;5.57;;;5.40;80.90;;;;;;5045674;28;20052;-65
2022/05/09 03:35:30;;;;;;;21.45;6.13;;;5.40;81.60;;;;;;5064002;28;20067;-65
2022/05/09 03:37:56;;;;;;;21.55;6.30;;;5.40;81.60;;;;;;5067178;28;20059;-65
2022/05/09 03:40:22;;;;;;;22.87;6.20;;;5.30;81.30;;;;;;5057569;28;20399;-65
2022/05/09 03:42:48;;;;;;;19.17;5.83;;;5.30;81.60;;;;;;5038368;28;20040;-65
2022/05/09 03:45:14;;;;;;;20.50;6.78;;;5.30;81.50;;;;;;5093840;28;20294;-65
2022/05/09 03:47:40;;;;;;;25.77;6.70;;;5.20;81.50;;;;;;5074284;28;20048;-65
2022/05/09 03:50:07;;;;;;;24.05;6.47;;;5.20;81.90;;;;;;5043621;28;20046;-65
2022/05/09 03:52:33;;;;;;;19.85;5.90;;;5.10;82.10;;;;;;5062203;28;20397;-65
2022/05/09 03:54:59;;;;;;;20.93;6.50;;;5.10;81.80;;;;;;5052295;28;20048;-65
2022/05/09 03:57:25;;;;;;;25.93;6.43;;;5.10;82.20;;;;;;5055816;28;20499;-65
2022/05/09 03:59:51;;;;;;;29.48;7.97;;;5.10;81.80;;;;;;5023550;28;20142;-65
2022/05/09 04:02:17;;;;;;;17.65;6.88;;;5.10;81.70;;;;;;5052358;28;20051;-64
2022/05/09 04:04:43;;;;;;;18.92;6.78;;;5.10;81.80;;;;;;5079448;28;20040;-64
2022/05/09 04:07:08;;;;;;;20.07;7.03;;;5.00;81.90;;;;;;5042897;28;20040;-65
2022/05/09 04:09:36;;;;;;;20.53;6.80;;;5.00;81.90;;;;;;5048257;28;20155;-65
2022/05/09 04:12:02;;;;;;;17.90;7.00;;;5.00;82.00;;;;;;5036748;28;20067;-65
2022/05/09 04:17:14;;;;;;;22.02;7.15;;;5.00;82.20;;;;;;5056682;28;20062;-65
2022/05/09 04:19:39;;;;;;;19.80;6.68;;;5.00;82.20;;;;;;5058454;28;20051;-65
2022/05/09 04:22:06;;;;;;;20.37;7.27;;;5.00;82.20;;;;;;5078096;28;20040;-65
2022/05/09 04:24:33;;;;;;;21.33;7.13;;;5.00;82.30;;;;;;5072177;28;20039;-65
2022/05/09 04:27:00;;;;;;;22.92;7.35;;;5.00;82.50;;;;;;5054429;28;20071;-65
2022/05/09 04:29:27;;;;;;;15.45;6.80;;;5.00;82.60;;;;;;5038992;28;20028;-65
2022/05/09 04:31:53;;;;;;;19.08;6.60;;;5.00;82.30;;;;;;5059721;28;20047;-65
2022/05/09 04:34:19;;;;;;;17.85;7.22;;;5.00;82.30;;;;;;5063424;28;20088;-65
2022/05/09 04:36:44;;;;;;;15.87;6.70;;;5.10;82.40;;;;;;5069392;28;20075;-65
2022/05/09 04:39:10;;;;;;;23.37;7.13;;;5.10;82.40;;;;;;5047712;28;20508;-65
2022/05/09 04:41:36;;;;;;;19.00;7.00;;;5.10;82.60;;;;;;5040835;28;20043;-65
2022/05/09 04:44:06;;;;;;;23.33;7.70;;;5.20;82.50;;;;;;5057202;28;20048;-65
2022/05/09 04:46:33;;;;;;;15.00;6.60;;;5.20;82.30;;;;;;5074477;28;20048;-65
2022/05/09 04:48:59;;;;;;;20.30;7.25;;;5.30;82.30;;;;;;5089664;28;20040;-65
2022/05/09 04:51:24;;;;;;;20.23;6.57;;;5.30;82.20;;;;;;5043008;28;20054;-65
2022/05/09 04:53:50;;;;;;;19.53;6.53;;;5.50;82.20;;;;;;5057340;28;20048;-65
2022/05/09 04:56:19;;;;;;;21.07;6.70;;;5.60;82.00;;;;;;5063233;28;20032;-65
2022/05/09 04:58:45;;;;;;;22.13;6.90;;;5.70;82.00;;;;;;5044965;28;20492;-65
2022/05/09 05:01:11;;;;;;;19.08;6.95;;;5.70;82.00;;;;;;5082584;28;20049;-65
2022/05/09 05:03:37;;;;;;;23.63;7.22;;;5.80;82.10;;;;;;5044209;28;20127;-65
2022/05/09 05:06:04;;;;;;;19.83;6.90;;;5.90;82.10;;;;;;5047192;28;20119;-65
2022/05/09 05:08:33;;;;;;;16.52;6.93;;;6.00;82.40;;;;;;5036966;28;20445;-65
2022/05/09 05:11:03;;;;;;;19.58;6.35;;;6.30;82.70;;;;;;5088098;28;20094;-65
2022/05/09 05:13:28;;;;;;;15.70;6.03;;;7.00;83.10;;;;;;5087376;28;20045;-65
2022/05/09 05:15:56;;;;;;;20.50;6.30;;;7.90;81.50;;;;;;5085803;28;20451;-65
2022/05/09 05:18:23;;;;;;;18.42;6.22;;;8.70;79.50;;;;;;5059208;28;20040;-65
2022/05/09 05:20:49;;;;;;;14.98;6.72;;;9.30;76.90;;;;;;5063132;28;20123;-65
2022/05/09 05:23:16;;;;;;;15.27;5.93;;;9.40;75.30;;;;;;5059698;28;20131;-65
2022/05/09 05:25:44;;;;;;;23.17;6.97;;;9.60;74.50;;;;;;5064029;28;20679;-65
2022/05/09 05:28:11;;;;;;;22.05;6.53;;;10.20;73.80;;;;;;5085283;28;20044;-65
2022/05/09 05:30:38;;;;;;;21.92;6.63;;;10.60;72.20;;;;;;5069407;28;20048;-65
2022/05/09 05:33:04;;;;;;;14.40;5.85;;;11.00;70.60;;;;;;5101582;28;20047;-65
2022/05/09 05:35:30;;;;;;;22.40;5.80;;;11.30;69.30;;;;;;5094532;28;20050;-65
2022/05/09 05:37:56;;;;;;;17.67;6.40;;;11.60;68.80;;;;;;5088153;28;20067;-65
2022/05/09 05:40:22;;;;;;;16.40;5.97;;;11.80;67.30;;;;;;5066748;28;20045;-65
2022/05/09 05:42:48;;;;;;;15.25;5.20;;;12.00;66.20;;;;;;5055910;28;20056;-65
2022/05/09 05:45:17;;;;;;;17.88;6.10;;;12.20;65.70;;;;;;5092128;28;20071;-65
2022/05/09 05:47:43;;;;;;;13.38;5.50;;;12.20;65.10;;;;;;5027360;28;20072;-65
2022/05/09 05:50:11;;;;;;;15.43;5.00;;;12.30;64.10;;;;;;5062486;28;20086;-65
2022/05/09 05:52:37;;;;;;;18.60;6.05;;;12.50;64.20;;;;;;5061818;28;20348;-65
2022/05/09 05:55:04;;;;;;;17.58;6.38;;;12.80;64.30;;;;;;5100584;28;20074;-65
2022/05/09 05:57:33;;;;;;;16.52;6.15;;;12.90;62.90;;;;;;5064690;28;20051;-65
2022/05/09 06:00:14;;;;;;;18.92;6.03;;;13.10;62.70;;;;;;5047308;28;20152;-65
2022/05/09 06:02:41;;;;;;;18.38;5.63;;;13.30;61.50;;;;;;5092388;28;20139;-65
2022/05/09 06:05:08;;;;;;;16.80;5.70;;;13.50;61.40;;;;;;5039858;28;20511;-65
2022/05/09 06:07:34;;;;;;;11.82;5.72;;;13.80;61.10;;;;;;5073769;28;20036;-65
2022/05/09 06:10:01;;;;;;;12.73;5.32;;;14.00;59.80;;;;;;5091256;28;20118;-65
2022/05/09 06:12:28;;;;;;;13.80;5.57;;;14.10;59.90;;;;;;5080574;28;20048;-65
2022/05/09 06:17:38;;;;;;;13.30;5.15;;;14.30;58.50;;;;;;5057928;28;20055;-65
2022/05/09 06:20:11;;;;;;;17.17;6.70;;;14.30;58.70;;;;;;5063411;28;20082;-66
2022/05/09 06:22:38;;;;;;;18.23;5.50;;;14.40;58.40;;;;;;5103215;28;20044;-66
2022/05/09 06:25:07;;;;;;;17.48;5.80;;;14.40;58.20;;;;;;5090394;28;20044;-66
2022/05/09 06:27:32;;;;;;;16.05;5.55;;;14.40;58.40;;;;;;5033003;28;20040;-65
2022/05/09 06:30:03;;;;;;;18.83;5.30;;;14.70;58.80;;;;;;5069728;28;20143;-65
2022/05/09 06:32:29;;;;;;;15.55;5.97;;;14.70;58.50;;;;;;5064859;28;20523;-65
2022/05/09 06:34:55;;;;;;;14.87;5.80;;;14.90;58.30;;;;;;5038310;28;20044;-65
2022/05/09 06:37:20;;;;;;;15.03;5.60;;;15.10;58.10;;;;;;5042079;28;20040;-65
2022/05/09 06:39:46;;;;;;;15.00;4.90;;;15.30;57.80;;;;;;5061659;28;20052;-65
2022/05/09 06:42:12;;;;;;;15.97;5.87;;;15.30;57.80;;;;;;5050210;28;20055;-65
2022/05/09 06:44:38;;;;;;;11.57;5.53;;;15.20;57.90;;;;;;5062659;28;20123;-65
2022/05/09 06:47:04;;;;;;;12.53;5.17;;;15.10;58.00;;;;;;4992119;28;1127237;-65
2022/05/09 06:49:31;;;;;;;17.38;5.53;;;15.00;58.40;;;;;;5057946;28;20101;-65
2022/05/09 06:51:57;;;;;;;12.10;5.10;;;14.80;58.40;;;;;;5055299;28;20049;-65
2022/05/09 06:54:23;;;;;;;15.07;5.47;;;14.70;58.80;;;;;;5091899;28;20350;-65
2022/05/09 06:56:49;;;;;;;12.30;4.30;;;14.50;59.20;;;;;;5012653;28;20821;-65
2022/05/09 06:59:16;;;;;;;16.07;4.93;;;14.30;59.70;;;;;;5049917;28;20101;-65
2022/05/09 07:01:42;;;;;;;14.97;4.63;;;13.80;60.70;;;;;;5080691;28;20290;-65
2022/05/09 07:04:10;;;;;;;17.23;4.57;;;13.30;62.40;;;;;;5068221;28;20680;-65
2022/05/09 07:06:36;;;;;;;15.13;5.27;;;12.80;63.90;;;;;;5050087;28;20271;-65
2022/05/09 07:09:02;;;;;;;14.53;5.63;;;12.50;65.10;;;;;;5031770;28;20294;-65
2022/05/09 07:11:28;;;;;;;12.88;5.00;;;12.30;65.60;;;;;;5048423;28;20343;-65
2022/05/09 07:13:54;;;;;;;14.07;4.70;;;12.20;66.30;;;;;;5068339;28;20047;-65
2022/05/09 07:16:19;;;;;;;17.37;4.93;;;12.20;66.80;;;;;;5048010;28;20509;-65
2022/05/09 07:18:45;;;;;;;17.33;5.67;;;12.20;67.00;;;;;;5027864;28;20052;-65
2022/05/09 07:21:11;;;;;;;14.93;4.67;;;12.20;67.20;;;;;;5050582;28;20043;-65
2022/05/09 07:23:37;;;;;;;16.33;5.07;;;12.20;67.50;;;;;;5037489;28;20078;-65
2022/05/09 07:26:03;;;;;;;19.63;5.03;;;12.20;67.10;;;;;;5064037;28;20460;-65
2022/05/09 07:28:29;;;;;;;15.17;4.47;;;12.20;67.50;;;;;;5032114;28;20134;-65
2022/05/09 07:30:57;;;;;;;14.27;4.55;;;12.20;66.70;;;;;;5083852;28;20307;-65
2022/05/09 07:33:23;;;;;;;15.15;4.50;;;12.30;66.90;;;;;;5082119;28;20033;-65
2022/05/09 07:35:49;;;;;;;14.15;4.80;;;12.40;66.00;;;;;;5036496;28;20532;-65
2022/05/09 07:38:15;;;;;;;15.43;5.17;;;12.50;66.10;;;;;;5066252;28;20127;-66
2022/05/09 07:40:43;;;;;;;14.32;4.70;;;12.60;65.60;;;;;;5055349;28;20083;-66
2022/05/09 07:43:12;;;;;;;11.20;4.77;;;12.60;65.50;;;;;;5093457;28;20072;-65
2022/05/09 07:45:38;;;;;;;12.00;3.90;;;12.70;65.80;;;;;;5051034;28;20386;-66
2022/05/09 07:48:04;;;;;;;15.10;4.70;;;12.80;65.40;;;;;;5062302;28;21190;-66
2022/05/09 07:50:30;;;;;;;12.67;4.63;;;13.00;65.20;;;;;;5029938;28;20044;-66
2022/05/09 07:52:55;;;;;;;13.30;4.23;;;13.10;65.10;;;;;;5022819;28;20294;-66
2022/05/09 07:55:21;;;;;;;13.50;4.33;;;13.20;65.30;;;;;;5049711;28;20048;-66
2022/05/09 07:57:47;;;;;;;12.47;3.97;;;13.40;64.90;;;;;;5036837;28;20044;-66
2022/05/09 08:00:13;;;;;;;14.30;4.13;;;13.50;64.50;;;;;;5050012;28;20066;-66
2022/05/09 08:02:40;;;;;;;13.53;3.83;;;13.60;64.40;;;;;;5057820;28;20040;-66
2022/05/09 08:05:10;;;;;;;14.63;4.30;;;13.70;63.90;;;;;;5086206;28;20282;-66
2022/05/09 08:07:39;;;;;;;13.93;4.97;;;13.80;63.70;;;;;;5060465;28;20304;-66
2022/05/09 08:10:06;;;;;;;13.83;4.37;;;14.00;63.90;;;;;;5079087;28;20287;-66
2022/05/09 08:12:32;;;;;;;14.00;4.63;;;14.10;64.30;;;;;;5046575;28;20294;-66
2022/05/09 08:14:58;;;;;;;16.33;4.00;;;14.30;63.90;;;;;;5030626;28;20303;-66
2022/05/09 08:17:24;;;;;;;14.50;4.40;;;14.40;63.30;;;;;;5051052;28;20090;-66
2022/05/09 08:19:55;;;;;;;12.70;4.13;;;14.50;62.10;;;;;;5062894;28;20048;-66
2022/05/09 08:22:22;;;;;;;9.63;3.63;;;14.60;62.50;;;;;;5025543;28;20490;-66
2022/05/09 08:24:48;;;;;;;17.97;4.20;;;14.80;62.10;;;;;;5076505;28;20282;-66
2022/05/09 08:27:13;;;;;;;12.50;4.10;;;15.00;61.80;;;;;;5028673;28;20287;-66
2022/05/09 08:29:39;;;;;;;12.10;3.87;;;15.10;61.50;;;;;;5043663;28;20836;-66
2022/05/09 08:32:06;;;;;;;11.23;4.20;;;15.30;61.00;;;;;;5062522;28;20098;-66
2022/05/09 08:34:32;;;;;;;11.23;4.03;;;15.40;60.30;;;;;;5043765;28;20044;-66
2022/05/09 08:36:58;;;;;;;12.77;3.53;;;15.50;59.30;;;;;;5046697;28;20764;-66
2022/05/09 08:39:26;;;;;;;11.07;3.63;;;15.70;58.40;;;;;;5027344;28;20299;-66
2022/05/09 08:42:06;;;;;;;11.03;3.40;;;15.80;58.80;;;;;;5075080;28;20040;-66
2022/05/09 08:44:51;;;;;;;15.47;4.17;;;15.90;59.20;;;;;;5042978;28;20286;-66
2022/05/09 08:47:49;;;;;;;8.18;3.05;;;16.00;58.30;;;;;;5027814;28;20854;-66
2022/05/09 08:50:42;;;;;;;12.37;3.23;;;16.20;59.40;;;;;;5058731;28;20044;-66
2022/05/09 08:53:12;;;;;;;10.20;3.10;;;16.40;59.20;;;;;;5048606;28;20290;-66
2022/05/09 08:55:42;;;;;;;9.80;3.40;;;16.60;58.70;;;;;;5048398;28;20278;-66
2022/05/09 08:58:40;;;;;;;13.07;2.90;;;16.80;56.80;;;;;;5046397;28;20786;-66
2022/05/09 09:01:12;;;;;;;8.17;2.77;;;16.90;54.60;;;;;;5046169;28;20287;-66
2022/05/09 09:03:43;;;;;;;10.27;3.27;;;17.00;55.40;;;;;;5049551;28;20296;-66
2022/05/09 09:06:14;;;;;;;10.00;2.77;;;17.10;55.30;;;;;;5044708;28;20287;-66
2022/05/09 09:08:58;;;;;;;10.20;3.00;;;17.20;54.60;;;;;;5031223;28;20295;-66
2022/05/09 09:11:46;;;;;;;13.33;3.33;;;17.30;54.30;;;;;;5052078;28;20303;-66
2022/05/09 09:14:34;;;;;;;7.47;2.17;;;17.40;52.10;;;;;;5055421;28;20286;-66
2022/05/09 09:17:02;;;;;;;7.77;2.33;;;17.50;51.60;;;;;;5045737;28;20287;-66
2022/05/09 09:20:16;;;;;;;6.70;2.10;;;17.60;51.90;;;;;;5068837;28;20342;-66
2022/05/09 09:22:58;;;;;;;11.30;2.53;;;17.70;49.30;;;;;;5076890;28;20626;-66
2022/05/09 09:25:58;;;;;;;10.30;2.20;;;17.90;49.80;;;;;;5031470;28;20279;-66
2022/05/09 09:28:33;;;;;;;8.10;2.53;;;18.00;50.10;;;;;;5063238;28;20283;-66
2022/05/09 09:31:00;;;;;;;10.65;3.15;;;18.10;50.00;;;;;;5039871;28;20303;-66
2022/05/09 09:33:26;;;;;;;11.80;2.93;;;18.20;49.90;;;;;;5082146;28;20267;-66
2022/05/09 09:36:07;;;;;;;6.77;2.63;;;18.30;49.80;;;;;;5064382;28;20302;-66
2022/05/09 09:38:54;;;;;;;10.20;3.00;;;18.40;49.80;;;;;;5082566;28;20040;-66
2022/05/09 09:41:21;;;;;;;9.23;2.30;;;18.50;46.70;;;;;;5048261;28;20293;-66
2022/05/09 09:43:49;;;;;;;8.63;2.10;;;18.70;48.60;;;;;;5048434;28;20287;-67
2022/05/09 09:46:15;;;;;;;4.87;1.53;;;18.90;47.10;;;;;;5067075;28;20385;-66
2022/05/09 09:48:41;;;;;;;12.60;1.97;;;19.00;47.00;;;;;;5072808;28;20287;-66
2022/05/09 09:51:10;;;;;;;8.67;2.40;;;19.10;44.80;;;;;;5056722;28;20289;-66
2022/05/09 09:53:57;;;;;;;8.47;2.70;;;19.20;45.90;;;;;;5033331;28;20483;-66
2022/05/09 09:56:22;;;;;;;8.80;2.20;;;19.30;45.10;;;;;;5078851;28;20286;-66
2022/05/09 09:58:52;;;;;;;10.73;2.33;;;19.30;45.10;;;;;;5035538;28;20280;-66
2022/05/09 10:01:24;;;;;;;10.43;2.70;;;19.40;44.30;;;;;;5053906;28;20040;-66
2022/05/09 10:04:05;;;;;;;8.37;2.33;;;19.40;43.50;;;;;;5052621;28;20375;-66
2022/05/09 10:06:32;;;;;;;11.50;2.37;;;19.40;42.00;;;;;;5062212;28;20289;-66
2022/05/09 10:09:08;;;;;;;6.40;2.03;;;19.40;44.30;;;;;;5088947;28;21172;-66
2022/05/09 10:11:34;;;;;;;10.70;2.17;;;19.40;44.50;;;;;;5041205;28;20340;-66
2022/05/09 10:14:03;;;;;;;6.57;2.00;;;19.50;45.00;;;;;;5063093;28;20289;-66
2022/05/09 10:16:48;;;;;;;5.27;1.93;;;19.60;42.60;;;;;;5037086;28;20298;-66
2022/05/09 10:19:29;;;;;;;7.30;1.83;;;19.60;43.30;;;;;;5047039;28;20299;-66
2022/05/09 10:24:57;;;;;;;7.97;2.30;;;19.90;41.60;;;;;;5059645;28;20286;-66
2022/05/09 10:27:22;;;;;;;7.90;2.00;;;19.90;42.00;;;;;;5036302;28;20279;-66
2022/05/09 10:29:55;;;;;;;7.87;2.03;;;20.00;42.80;;;;;;5039749;28;20646;-66
2022/05/09 10:32:46;;;;;;;7.17;2.87;;;20.10;42.90;;;;;;5045217;28;20079;-66
2022/05/09 10:35:47;;;;;;;5.53;1.80;;;20.20;41.80;;;;;;5035930;28;20301;-66
2022/05/09 10:38:38;;;;;;;16.30;2.87;;;20.40;43.30;;;;;;5070528;28;20289;-66
2022/05/09 10:41:13;;;;;;;8.27;2.17;;;20.40;41.90;;;;;;5049412;28;20790;-66
2022/05/09 10:44:14;;;;;;;9.83;2.07;;;20.40;40.80;;;;;;5084715;28;20281;-66
2022/05/09 10:46:52;;;;;;;8.60;2.33;;;20.40;40.80;;;;;;5051045;28;20044;-66
2022/05/09 10:49:46;;;;;;;10.10;2.30;;;20.50;41.70;;;;;;5086244;28;20063;-66
2022/05/09 10:52:27;;;;;;;10.87;2.90;;;20.70;42.50;;;;;;5078298;28;20129;-66
2022/05/09 10:55:00;;;;;;;5.53;2.20;;;20.80;40.40;;;;;;5048468;28;20062;-66
2022/05/09 10:57:35;;;;;;;12.20;3.07;;;20.80;40.50;;;;;;5054792;28;20049;-67
2022/05/09 11:00:10;;;;;;;7.97;2.53;;;20.80;39.90;;;;;;5022757;28;20045;-67
2022/05/09 11:02:40;;;;;;;12.88;2.63;;;20.80;40.70;;;;;;5036736;28;20119;-67
2022/05/09 11:05:07;;;;;;;8.30;2.30;;;20.90;39.90;;;;;;5086290;28;20055;-67
2022/05/09 11:07:33;;;;;;;6.87;1.93;;;21.00;40.40;;;;;;5054879;28;20045;-67
2022/05/09 11:10:17;;;;;;;10.67;2.40;;;21.00;40.60;;;;;;5033635;28;20500;-66
2022/05/09 11:13:22;;;;;;;8.02;2.40;;;21.10;39.80;;;;;;5049693;28;20119;-67
2022/05/09 11:15:50;;;;;;;9.13;2.73;;;21.20;38.50;;;;;;4988046;28;20080;-67
2022/05/09 11:18:26;;;;;;;8.83;2.23;;;21.10;40.90;;;;;;5070484;28;20067;-66
2022/05/09 11:21:36;;;;;;;6.90;1.80;;;21.20;40.80;;;;;;5053990;28;20072;-66
2022/05/09 11:24:32;;;;;;;8.27;2.20;;;21.30;39.60;;;;;;5084501;28;20059;-66
2022/05/09 11:27:40;;;;;;;9.50;2.17;;;21.40;39.40;;;;;;5053259;28;20045;-66
2022/05/09 11:30:21;;;;;;;11.20;2.90;;;21.60;39.40;;;;;;5019849;28;20043;-67
2022/05/09 11:32:58;;;;;;;9.90;2.17;;;21.60;37.70;;;;;;5067846;28;20416;-67
2022/05/09 11:35:35;;;;;;;8.87;2.47;;;21.70;39.60;;;;;;5050430;28;20048;-66
2022/05/09 11:38:16;;;;;;;10.17;2.37;;;21.70;38.80;;;;;;5086588;28;20041;-66
2022/05/09 11:41:01;;;;;;;11.03;2.20;;;21.70;39.30;;;;;;5047316;28;20404;-66
2022/05/09 11:43:48;;;;;;;12.40;2.53;;;21.80;39.90;;;;;;5051669;28;20504;-66
2022/05/09 11:46:40;;;;;;;6.77;1.97;;;22.00;39.30;;;;;;5038900;28;20522;-66
2022/05/09 11:49:13;;;;;;;8.67;2.17;;;22.30;36.90;;;;;;5062742;28;20077;-66
2022/05/09 11:51:57;;;;;;;7.03;1.87;;;22.30;37.10;;;;;;5030509;28;20045;-67
2022/05/09 11:54:37;;;;;;;6.60;1.90;;;22.20;36.30;;;;;;5018184;28;20102;-67
2022/05/09 11:57:29;;;;;;;8.23;2.57;;;22.00;37.40;;;;;;5045778;28;20099;-67
2022/05/09 11:59:58;;;;;;;8.97;2.20;;;22.10;38.70;;;;;;5010757;28;20461;-67
2022/05/09 12:02:44;;;;;;;9.57;2.03;;;22.30;37.10;;;;;;5027029;28;20548;-67
2022/05/09 12:05:26;;;;;;;11.23;2.13;;;22.30;37.20;;;;;;5021308;28;20046;-66
2022/05/09 12:08:13;;;;;;;6.20;1.97;;;22.30;36.50;;;;;;5068099;28;20048;-67
2022/05/09 12:10:42;;;;;;;6.63;1.80;;;22.30;35.70;;;;;;5067119;28;20090;-67
2022/05/09 12:13:19;;;;;;;7.73;1.47;;;22.40;36.00;;;;;;5023970;28;20455;-67
2022/05/09 12:15:48;;;;;;;9.40;2.40;;;22.40;36.50;;;;;;5066244;28;20612;-67
2022/05/09 12:18:23;;;;;;;7.40;2.00;;;22.50;37.20;;;;;;5047213;28;20040;-67
2022/05/09 12:20:49;;;;;;;9.15;1.73;;;22.50;37.30;;;;;;5065539;28;20663;-67
2022/05/09 12:23:41;;;;;;;7.20;2.50;;;22.50;37.40;;;;;;5046904;28;20025;-67
2022/05/09 12:26:09;;;;;;;6.47;2.33;;;22.40;36.40;;;;;;4989237;28;20041;-67
2022/05/09 12:28:40;;;;;;;8.93;2.23;;;22.40;37.40;;;;;;5012315;28;20051;-67
2022/05/09 12:31:41;;;;;;;10.27;2.03;;;22.40;36.50;;;;;;5031104;28;20101;-67
2022/05/09 12:34:11;;;;;;;6.40;1.80;;;22.20;37.30;;;;;;5030716;28;20142;-67
2022/05/09 12:36:38;;;;;;;6.67;2.00;;;22.10;36.90;;;;;;5063944;28;20052;-67
2022/05/09 12:39:06;;;;;;;12.27;2.27;;;22.20;38.00;;;;;;5012329;28;20405;-67
2022/05/09 12:41:42;;;;;;;6.47;1.93;;;22.40;35.80;;;;;;5047497;28;20037;-67
2022/05/09 12:44:13;;;;;;;7.53;1.70;;;22.30;36.50;;;;;;5017004;28;20405;-67
2022/05/09 12:46:49;;;;;;;9.63;2.33;;;22.60;37.40;;;;;;5029604;28;20121;-67
2022/05/09 12:49:19;;;;;;;8.57;2.30;;;22.60;34.70;;;;;;5059502;28;20084;-67
2022/05/09 12:51:49;;;;;;;6.47;1.80;;;22.30;35.10;;;;;;5037761;28;20447;-67
2022/05/09 12:54:17;;;;;;;10.67;2.27;;;22.40;35.70;;;;;;5048593;28;20045;-67
2022/05/09 12:56:56;;;;;;;5.77;1.67;;;22.50;36.80;;;;;;5029361;28;20056;-67
2022/05/09 12:59:22;;;;;;;8.90;1.90;;;22.70;36.70;;;;;;5047961;28;20041;-67
2022/05/09 13:01:55;;;;;;;7.03;1.60;;;22.80;35.60;;;;;;5045988;28;20127;-67
2022/05/09 13:04:26;;;;;;;7.53;1.60;;;22.90;34.70;;;;;;5063858;28;20050;-67
2022/05/09 13:06:55;;;;;;;7.10;2.37;;;23.10;35.70;;;;;;5030326;28;20044;-67
2022/05/09 13:09:24;;;;;;;7.10;1.30;;;23.20;35.00;;;;;;5030840;28;20524;-67
2022/05/09 13:12:13;;;;;;;7.13;1.47;;;23.30;35.60;;;;;;5014658;28;20047;-67
2022/05/09 13:14:53;;;;;;;10.00;2.17;;;23.50;35.10;;;;;;5027445;28;20077;-67